Terminal Aerodrome Forecast
Issued by NWS Omaha/Valley, NE

Home | Current Version | Previous Version | Text Only | Print | Product List | Glossary Off
Versions: 1 2 3 4 5 6 7 8 9 10 11 12 13 14 15 16

000
FTUS43 KOAX 211720
TAFOFK
TAF
KOFK 211720Z 2118/2218 35020G30KT P6SM SKC
     FM212300 36013G22KT P6SM SKC
     FM220300 01005KT P6SM SKC
     FM221500 15010KT P6SM SKC=

USA.gov is the U.S. government's official web portal to all federal, state and local government web resources and services.